PWSweather.com
Personal Weather Stations
Station Observations
KTXDECATUR
Wildwood, Decatur, TX 76234

WildwoodDecatur, TX 76234

Lat: 33.2634, Lon: -97.6651

Elevation: 800

Station Type: Davis Vantage Pro 2

http://weather.wildwoodnaturist.com

Latest ConditionsUpdated 6:15:01 PM CST Sunday, Jan 22, 2017
Currently Today's Max Today's Min Today's Average
Temperature 59.0°F15.0°C 63.4°F17.4°C 44.1°F6.7°C 54.3°F12.4°C
Dew Point 39.3°F4.1°C 47.1°F8.4°C 34.4°F1.3°C 40.8°F4.9°C
Winds 6.9 mph NW11.1 kmh NW 26.5 mph NNW42.6 kmh NNW - 13.0 mph 20.9 kmh
Wind Gusts 8.1 mph13.0 kmh 33.4 mph53.8 kmh - -
Humidity 48% 87% 44% 62%
Pressure 29.84 in1010.5 mb 29.84 in1010.5 mb 29.34 in993.6 mb -
Hour Temp Dew Point Humidity Winds Wind Gusts Pressure Precip Precip Rate Daily Precip Total
06:15 PM 59.0°F15.0°C 39.3°F4.1°C 48% 6.9 mph NW11.1 kmh NW 8.1 mph13.0 kmh 29.84 in1010.5 mb - 0.00 in0.0 mm 0.00 in0.0 mm
06:10 PM 59.0°F15.0°C 39.3°F4.1°C 48% 6.9 mph NW11.1 kmh NW 10.4 mph16.7 kmh 29.84 in1010.5 mb - 0.00 in0.0 mm 0.00 in0.0 mm
06:00 PM 59.6°F15.3°C 39.3°F4.1°C 47% 9.2 mph NW14.8 kmh NW 10.4 mph16.7 kmh 29.83 in1010.2 mb - 0.00 in0.0 mm 0.00 in0.0 mm
05:50 PM 60.4°F15.8°C 39.5°F4.2°C 46% 6.9 mph NW11.1 kmh NW 9.2 mph14.8 kmh 29.82 in1009.8 mb - 0.00 in0.0 mm 0.00 in0.0 mm
05:45 PM 60.7°F15.9°C 39.8°F4.3°C 46% 11.5 mph NW18.5 kmh NW 17.3 mph27.8 kmh 29.81 in1009.5 mb - 0.00 in0.0 mm 0.00 in0.0 mm
05:40 PM 60.9°F16.1°C 39.4°F4.1°C 45% 15.0 mph NW24.1 kmh NW 20.7 mph33.3 kmh 29.81 in1009.5 mb - 0.00 in0.0 mm 0.00 in0.0 mm
05:30 PM 61.2°F16.2°C 39.1°F3.9°C 44% 13.8 mph NW22.2 kmh NW 16.1 mph25.9 kmh 29.81 in1009.5 mb - 0.00 in0.0 mm 0.00 in0.0 mm
05:20 PM 61.5°F16.4°C 39.4°F4.1°C 44% 11.5 mph NW18.5 kmh NW 25.3 mph40.7 kmh 29.80 in1009.1 mb - 0.00 in0.0 mm 0.00 in0.0 mm
05:15 PM 61.7°F16.5°C 39.6°F4.2°C 44% 15.0 mph NW24.1 kmh NW 21.9 mph35.2 kmh 29.80 in1009.1 mb - 0.00 in0.0 mm 0.00 in0.0 mm
05:10 PM 61.8°F16.6°C 39.6°F4.2°C 44% 20.7 mph NNW33.3 kmh NNW 29.9 mph48.1 kmh 29.80 in1009.1 mb - 0.00 in0.0 mm 0.00 in0.0 mm
05:00 PM 61.9°F16.6°C 40.3°F4.6°C 45% 12.7 mph NW20.4 kmh NW 18.4 mph29.6 kmh 29.79 in1008.8 mb - 0.00 in0.0 mm 0.00 in0.0 mm
04:50 PM 62.2°F16.8°C 40.6°F4.8°C 45% 18.4 mph NW29.6 kmh NW 24.2 mph38.9 kmh 29.78 in1008.5 mb - 0.00 in0.0 mm 0.00 in0.0 mm
04:45 PM 62.3°F16.8°C 40.7°F4.8°C 45% 13.8 mph NW22.2 kmh NW 18.4 mph29.6 kmh 29.78 in1008.5 mb - 0.00 in0.0 mm 0.00 in0.0 mm
04:40 PM 62.3°F16.8°C 41.2°F5.1°C 46% 15.0 mph NW24.1 kmh NW 23.0 mph37.0 kmh 29.78 in1008.5 mb - 0.00 in0.0 mm 0.00 in0.0 mm
04:30 PM 62.4°F16.9°C 41.3°F5.2°C 46% 17.3 mph NW27.8 kmh NW 24.2 mph38.9 kmh 29.78 in1008.5 mb - 0.00 in0.0 mm 0.00 in0.0 mm
04:20 PM 62.2°F16.8°C 40.6°F4.8°C 45% 24.2 mph NNW38.9 kmh NNW 24.2 mph38.9 kmh 29.77 in1008.1 mb - 0.00 in0.0 mm 0.00 in0.0 mm
04:15 PM 62.1°F16.7°C 41.1°F5.1°C 46% 19.6 mph NNW31.5 kmh NNW 26.5 mph42.6 kmh 29.77 in1008.1 mb - 0.00 in0.0 mm 0.00 in0.0 mm
04:10 PM 62.1°F16.7°C 41.1°F5.1°C 46% 20.7 mph NW33.3 kmh NW 26.5 mph42.6 kmh 29.76 in1007.8 mb - 0.00 in0.0 mm 0.00 in0.0 mm
04:00 PM 62.5°F16.9°C 40.9°F4.9°C 45% 18.4 mph NNW29.6 kmh NNW 25.3 mph40.7 kmh 29.76 in1007.8 mb - 0.00 in0.0 mm 0.00 in0.0 mm
03:50 PM 62.6°F17.0°C 40.4°F4.7°C 44% 24.2 mph NNW38.9 kmh NNW 29.9 mph48.1 kmh 29.75 in1007.5 mb - 0.00 in0.0 mm 0.00 in0.0 mm
03:45 PM 62.7°F17.1°C 40.5°F4.7°C 44% 20.7 mph NW33.3 kmh NW 31.1 mph50.1 kmh 29.75 in1007.5 mb - 0.00 in0.0 mm 0.00 in0.0 mm
03:40 PM 62.6°F17.0°C 40.4°F4.7°C 44% 18.4 mph NNW29.6 kmh NNW 24.2 mph38.9 kmh 29.74 in1007.1 mb - 0.00 in0.0 mm 0.00 in0.0 mm
03:30 PM 62.7°F17.1°C 40.4°F4.7°C 44% 24.2 mph NNW38.9 kmh NNW 32.2 mph51.8 kmh 29.74 in1007.1 mb - 0.00 in0.0 mm 0.00 in0.0 mm
03:20 PM 63.4°F17.4°C 41.1°F5.1°C 44% 20.7 mph NW33.3 kmh NW 28.8 mph46.3 kmh 29.73 in1006.8 mb - 0.00 in0.0 mm 0.00 in0.0 mm
03:15 PM 63.1°F17.3°C 41.4°F5.2°C 45% 21.9 mph NNW35.2 kmh NNW 27.6 mph44.4 kmh 29.73 in1006.8 mb - 0.00 in0.0 mm 0.00 in0.0 mm
03:10 PM 62.9°F17.2°C 41.2°F5.1°C 45% 18.4 mph NW29.6 kmh NW 23.0 mph37.0 kmh 29.73 in1006.8 mb - 0.00 in0.0 mm 0.00 in0.0 mm
03:00 PM 62.7°F17.1°C 41.6°F5.3°C 46% 24.2 mph NW38.9 kmh NW 31.1 mph50.1 kmh 29.72 in1006.4 mb - 0.00 in0.0 mm 0.00 in0.0 mm
02:50 PM 62.8°F17.1°C 42.3°F5.7°C 47% 24.2 mph NW38.9 kmh NW 31.1 mph50.1 kmh 29.72 in1006.4 mb - 0.00 in0.0 mm 0.00 in0.0 mm
02:45 PM 63.0°F17.2°C 42.4°F5.8°C 47% 23.0 mph NNW37.0 kmh NNW 33.4 mph53.8 kmh 29.71 in1006.1 mb - 0.00 in0.0 mm 0.00 in0.0 mm
02:40 PM 62.8°F17.1°C 42.3°F5.7°C 47% 24.2 mph NW38.9 kmh NW 27.6 mph44.4 kmh 29.71 in1006.1 mb - 0.00 in0.0 mm 0.00 in0.0 mm
02:30 PM 62.6°F17.0°C 42.6°F5.9°C 48% 19.6 mph NW31.5 kmh NW 27.6 mph44.4 kmh 29.70 in1005.8 mb - 0.00 in0.0 mm 0.00 in0.0 mm
02:20 PM 62.1°F16.7°C 43.2°F6.2°C 50% 23.0 mph NW37.0 kmh NW 29.9 mph48.1 kmh 29.70 in1005.8 mb - 0.00 in0.0 mm 0.00 in0.0 mm
02:15 PM 62.4°F16.9°C 43.0°F6.1°C 49% 20.7 mph NW33.3 kmh NW 26.5 mph42.6 kmh 29.70 in1005.8 mb - 0.00 in0.0 mm 0.00 in0.0 mm
02:10 PM 62.6°F17.0°C 43.7°F6.5°C 50% 26.5 mph NNW42.6 kmh NNW 27.6 mph44.4 kmh 29.69 in1005.4 mb - 0.00 in0.0 mm 0.00 in0.0 mm
02:00 PM 62.0°F16.7°C 43.1°F6.2°C 50% 19.6 mph NW31.5 kmh NW 26.5 mph42.6 kmh 29.69 in1005.4 mb - 0.00 in0.0 mm 0.00 in0.0 mm
01:50 PM 62.2°F16.8°C 44.3°F6.8°C 52% 23.0 mph NW37.0 kmh NW 28.8 mph46.3 kmh 29.68 in1005.1 mb - 0.00 in0.0 mm 0.00 in0.0 mm
01:45 PM 62.2°F16.8°C 44.8°F7.1°C 53% 20.7 mph NW33.3 kmh NW 32.2 mph51.8 kmh 29.69 in1005.4 mb - 0.00 in0.0 mm 0.00 in0.0 mm
01:40 PM 61.7°F16.5°C 44.4°F6.9°C 53% 25.3 mph NW40.7 kmh NW 29.9 mph48.1 kmh 29.69 in1005.4 mb - 0.00 in0.0 mm 0.00 in0.0 mm
01:30 PM 61.4°F16.3°C 44.6°F7.0°C 54% 19.6 mph NNW31.5 kmh NNW 24.2 mph38.9 kmh 29.69 in1005.4 mb - 0.00 in0.0 mm 0.00 in0.0 mm
01:20 PM 61.6°F16.4°C 44.8°F7.1°C 54% 25.3 mph NW40.7 kmh NW 32.2 mph51.8 kmh 29.69 in1005.4 mb - 0.00 in0.0 mm 0.00 in0.0 mm
01:15 PM 61.2°F16.2°C 44.9°F7.2°C 55% 20.7 mph NW33.3 kmh NW 29.9 mph48.1 kmh 29.68 in1005.1 mb - 0.00 in0.0 mm 0.00 in0.0 mm
01:10 PM 60.8°F16.0°C 44.5°F6.9°C 55% 21.9 mph NW35.2 kmh NW 26.5 mph42.6 kmh 29.69 in1005.4 mb - 0.00 in0.0 mm 0.00 in0.0 mm
01:00 PM 60.7°F15.9°C 45.8°F7.7°C 58% 21.9 mph NNW35.2 kmh NNW 25.3 mph40.7 kmh 29.68 in1005.1 mb - 0.00 in0.0 mm 0.00 in0.0 mm
12:50 PM 59.3°F15.2°C 46.3°F7.9°C 62% 18.4 mph NW29.6 kmh NW 18.4 mph29.6 kmh 29.69 in1005.4 mb - 0.00 in0.0 mm 0.00 in0.0 mm
12:45 PM 59.0°F15.0°C 46.0°F7.8°C 62% 23.0 mph NW37.0 kmh NW 24.2 mph38.9 kmh 29.69 in1005.4 mb - 0.00 in0.0 mm 0.00 in0.0 mm
12:40 PM 59.0°F15.0°C 46.8°F8.2°C 64% 17.3 mph NW27.8 kmh NW 23.0 mph37.0 kmh 29.69 in1005.4 mb - 0.00 in0.0 mm 0.00 in0.0 mm
12:30 PM 57.2°F14.0°C 45.9°F7.7°C 66% 20.7 mph NW33.3 kmh NW 27.6 mph44.4 kmh 29.70 in1005.8 mb - 0.00 in0.0 mm 0.00 in0.0 mm
12:20 PM 56.9°F13.8°C 46.1°F7.8°C 67% 15.0 mph WNW24.1 kmh WNW 26.5 mph42.6 kmh 29.69 in1005.4 mb - 0.00 in0.0 mm 0.00 in0.0 mm
12:15 PM 56.6°F13.7°C 46.2°F7.9°C 68% 19.6 mph NW31.5 kmh NW 27.6 mph44.4 kmh 29.69 in1005.4 mb - 0.00 in0.0 mm 0.00 in0.0 mm
12:10 PM 56.4°F13.6°C 46.0°F7.8°C 68% 21.9 mph NW35.2 kmh NW 26.5 mph42.6 kmh 29.69 in1005.4 mb - 0.00 in0.0 mm 0.00 in0.0 mm
12:00 PM 56.3°F13.5°C 46.6°F8.1°C 70% 19.6 mph NW31.5 kmh NW 31.1 mph50.1 kmh 29.69 in1005.4 mb - 0.00 in0.0 mm 0.00 in0.0 mm
11:50 AM 56.0°F13.3°C 46.4°F8.0°C 70% 17.3 mph NW27.8 kmh NW 26.5 mph42.6 kmh 29.68 in1005.1 mb - 0.00 in0.0 mm 0.00 in0.0 mm
11:45 AM 56.2°F13.4°C 46.2°F7.9°C 69% 18.4 mph NW29.6 kmh NW 25.3 mph40.7 kmh 29.68 in1005.1 mb - 0.00 in0.0 mm 0.00 in0.0 mm
11:40 AM 56.3°F13.5°C 46.3°F7.9°C 69% 19.6 mph NW31.5 kmh NW 23.0 mph37.0 kmh 29.68 in1005.1 mb - 0.00 in0.0 mm 0.00 in0.0 mm
11:30 AM 56.2°F13.4°C 46.2°F7.9°C 69% 18.4 mph NW29.6 kmh NW 24.2 mph38.9 kmh 29.68 in1005.1 mb - 0.00 in0.0 mm 0.00 in0.0 mm
11:20 AM 56.2°F13.4°C 46.1°F7.8°C 69% 23.0 mph NW37.0 kmh NW 29.9 mph48.1 kmh 29.67 in1004.7 mb - 0.00 in0.0 mm 0.00 in0.0 mm
11:15 AM 56.1°F13.4°C 46.1°F7.8°C 69% 17.3 mph NW27.8 kmh NW 23.0 mph37.0 kmh 29.67 in1004.7 mb - 0.00 in0.0 mm 0.00 in0.0 mm
11:10 AM 56.0°F13.3°C 46.0°F7.8°C 69% 23.0 mph NW37.0 kmh NW 27.6 mph44.4 kmh 29.67 in1004.7 mb - 0.00 in0.0 mm 0.00 in0.0 mm
11:00 AM 55.7°F13.2°C 46.1°F7.8°C 70% 20.7 mph NW33.3 kmh NW 25.3 mph40.7 kmh 29.66 in1004.4 mb - 0.00 in0.0 mm 0.00 in0.0 mm
10:50 AM 55.6°F13.1°C 46.7°F8.2°C 72% 20.7 mph NW33.3 kmh NW 23.0 mph37.0 kmh 29.65 in1004.1 mb - 0.00 in0.0 mm 0.00 in0.0 mm
10:45 AM 55.6°F13.1°C 46.7°F8.2°C 72% 18.4 mph NW29.6 kmh NW 21.9 mph35.2 kmh 29.64 in1003.7 mb - 0.00 in0.0 mm 0.00 in0.0 mm
10:40 AM 54.9°F12.7°C 47.1°F8.4°C 75% 16.1 mph NW25.9 kmh NW 29.9 mph48.1 kmh 29.64 in1003.7 mb - 0.00 in0.0 mm 0.00 in0.0 mm
10:30 AM 53.5°F11.9°C 46.5°F8.1°C 77% 18.4 mph NW29.6 kmh NW 23.0 mph37.0 kmh 29.64 in1003.7 mb - 0.00 in0.0 mm 0.00 in0.0 mm
10:20 AM 53.0°F11.7°C 46.6°F8.1°C 79% 16.1 mph NW25.9 kmh NW 16.1 mph25.9 kmh 29.64 in1003.7 mb - 0.00 in0.0 mm 0.00 in0.0 mm
10:15 AM 52.7°F11.5°C 46.7°F8.2°C 80% 11.5 mph NW18.5 kmh NW 15.0 mph24.1 kmh 29.63 in1003.4 mb - 0.00 in0.0 mm 0.00 in0.0 mm
10:10 AM 52.3°F11.3°C 46.4°F8.0°C 80% 15.0 mph NW24.1 kmh NW 21.9 mph35.2 kmh 29.63 in1003.4 mb - 0.00 in0.0 mm 0.00 in0.0 mm
10:00 AM 51.9°F11.1°C 46.3°F7.9°C 81% 19.6 mph NW31.5 kmh NW 23.0 mph37.0 kmh 29.62 in1003.0 mb - 0.00 in0.0 mm 0.00 in0.0 mm
09:50 AM 51.5°F10.8°C 46.2°F7.9°C 82% 15.0 mph NW24.1 kmh NW 23.0 mph37.0 kmh 29.61 in1002.7 mb - 0.00 in0.0 mm 0.00 in0.0 mm
09:45 AM 51.0°F10.6°C 46.3°F7.9°C 84% 13.8 mph NW22.2 kmh NW 20.7 mph33.3 kmh 29.61 in1002.7 mb - 0.00 in0.0 mm 0.00 in0.0 mm
09:40 AM 50.5°F10.3°C 45.8°F7.7°C 84% 18.4 mph NW29.6 kmh NW 19.6 mph31.5 kmh 29.60 in1002.4 mb - 0.00 in0.0 mm 0.00 in0.0 mm
09:30 AM 49.7°F9.8°C 45.3°F7.4°C 85% 13.8 mph NW22.2 kmh NW 17.3 mph27.8 kmh 29.60 in1002.4 mb - 0.00 in0.0 mm 0.00 in0.0 mm
09:20 AM 49.0°F9.4°C 45.0°F7.2°C 86% 11.5 mph NW18.5 kmh NW 13.8 mph22.2 kmh 29.59 in1002.0 mb - 0.00 in0.0 mm 0.00 in0.0 mm
09:15 AM 48.7°F9.3°C 44.7°F7.1°C 86% 12.7 mph NW20.4 kmh NW 13.8 mph22.2 kmh 29.58 in1001.7 mb - 0.00 in0.0 mm 0.00 in0.0 mm
09:10 AM 48.3°F9.1°C 44.6°F7.0°C 87% 15.0 mph WNW24.1 kmh WNW 20.7 mph33.3 kmh 29.58 in1001.7 mb - 0.00 in0.0 mm 0.00 in0.0 mm
09:00 AM 47.7°F8.7°C 44.0°F6.7°C 87% 12.7 mph NW20.4 kmh NW 16.1 mph25.9 kmh 29.57 in1001.4 mb - 0.00 in0.0 mm 0.00 in0.0 mm
08:50 AM 47.0°F8.3°C 43.4°F6.3°C 87% 16.1 mph NW25.9 kmh NW 18.4 mph29.6 kmh 29.57 in1001.4 mb - 0.00 in0.0 mm 0.00 in0.0 mm
08:45 AM 46.7°F8.2°C 43.1°F6.2°C 87% 17.3 mph WNW27.8 kmh WNW 23.0 mph37.0 kmh 29.56 in1001.0 mb - 0.00 in0.0 mm 0.00 in0.0 mm
08:40 AM 46.5°F8.1°C 42.8°F6.0°C 87% 15.0 mph NW24.1 kmh NW 17.3 mph27.8 kmh 29.55 in1000.7 mb - 0.00 in0.0 mm 0.00 in0.0 mm
08:30 AM 46.1°F7.8°C 42.1°F5.6°C 86% 12.7 mph NW20.4 kmh NW 16.1 mph25.9 kmh 29.55 in1000.7 mb - 0.00 in0.0 mm 0.00 in0.0 mm
08:20 AM 45.6°F7.6°C 41.7°F5.4°C 86% 16.1 mph NW25.9 kmh NW 23.0 mph37.0 kmh 29.54 in1000.3 mb - 0.00 in0.0 mm 0.00 in0.0 mm
08:15 AM 45.4°F7.4°C 41.1°F5.1°C 85% 15.0 mph NW24.1 kmh NW 17.3 mph27.8 kmh 29.53 in1000.0 mb - 0.00 in0.0 mm 0.00 in0.0 mm
08:10 AM 45.1°F7.3°C 40.9°F4.9°C 85% 11.5 mph NW18.5 kmh NW 18.4 mph29.6 kmh 29.52 in999.7 mb - 0.00 in0.0 mm 0.00 in0.0 mm
08:00 AM 44.9°F7.2°C 40.4°F4.7°C 84% 12.7 mph NW20.4 kmh NW 16.1 mph25.9 kmh 29.51 in999.3 mb - 0.00 in0.0 mm 0.00 in0.0 mm
07:50 AM 44.4°F6.9°C 39.6°F4.2°C 83% 12.7 mph NW20.4 kmh NW 19.6 mph31.5 kmh 29.51 in999.3 mb - 0.00 in0.0 mm 0.00 in0.0 mm
07:45 AM 44.2°F6.8°C 39.1°F3.9°C 82% 11.5 mph NW18.5 kmh NW 23.0 mph37.0 kmh 29.50 in999.0 mb - 0.00 in0.0 mm 0.00 in0.0 mm
07:40 AM 44.1°F6.7°C 39.0°F3.9°C 82% 13.8 mph NW22.2 kmh NW 17.3 mph27.8 kmh 29.50 in999.0 mb - 0.00 in0.0 mm 0.00 in0.0 mm
07:30 AM 44.4°F6.9°C 38.6°F3.7°C 80% 8.1 mph WNW13.0 kmh WNW 16.1 mph25.9 kmh 29.48 in998.3 mb - 0.00 in0.0 mm 0.00 in0.0 mm
07:20 AM 44.9°F7.2°C 38.8°F3.8°C 79% 8.1 mph WNW13.0 kmh WNW 17.3 mph27.8 kmh 29.47 in998.0 mb - 0.00 in0.0 mm 0.00 in0.0 mm
07:15 AM 45.2°F7.3°C 39.1°F3.9°C 79% 8.1 mph WNW13.0 kmh WNW 9.2 mph14.8 kmh 29.47 in998.0 mb - 0.00 in0.0 mm 0.00 in0.0 mm
07:10 AM 45.5°F7.5°C 39.4°F4.1°C 79% 16.1 mph WNW25.9 kmh WNW 18.4 mph29.6 kmh 29.46 in997.6 mb - 0.00 in0.0 mm 0.00 in0.0 mm
07:00 AM 46.2°F7.9°C 39.7°F4.3°C 78% 10.4 mph WNW16.7 kmh WNW 18.4 mph29.6 kmh 29.46 in997.6 mb - 0.00 in0.0 mm 0.00 in0.0 mm
06:50 AM 46.7°F8.2°C 39.6°F4.2°C 76% 8.1 mph WNW13.0 kmh WNW 12.7 mph20.4 kmh 29.45 in997.3 mb - 0.00 in0.0 mm 0.00 in0.0 mm
06:45 AM 47.0°F8.3°C 39.8°F4.3°C 76% 10.4 mph WNW16.7 kmh WNW 11.5 mph18.5 kmh 29.45 in997.3 mb - 0.00 in0.0 mm 0.00 in0.0 mm
06:40 AM 47.3°F8.5°C 39.4°F4.1°C 74% 10.4 mph W16.7 kmh W 12.7 mph20.4 kmh 29.44 in997.0 mb - 0.00 in0.0 mm 0.00 in0.0 mm
06:30 AM 47.8°F8.8°C 39.2°F4.0°C 72% 10.4 mph WNW16.7 kmh WNW 11.5 mph18.5 kmh 29.44 in997.0 mb - 0.00 in0.0 mm 0.00 in0.0 mm
06:20 AM 48.2°F9.0°C 38.9°F3.8°C 70% 6.9 mph WNW11.1 kmh WNW 11.5 mph18.5 kmh 29.42 in996.3 mb - 0.00 in0.0 mm 0.00 in0.0 mm
06:15 AM 48.3°F9.1°C 38.6°F3.7°C 69% 5.8 mph WNW9.3 kmh WNW 13.8 mph22.2 kmh 29.42 in996.3 mb - 0.00 in0.0 mm 0.00 in0.0 mm
06:10 AM 48.3°F9.1°C 38.2°F3.4°C 68% 4.6 mph WNW7.4 kmh WNW 8.1 mph13.0 kmh 29.41 in995.9 mb - 0.00 in0.0 mm 0.00 in0.0 mm
06:00 AM 48.0°F8.9°C 37.6°F3.1°C 67% 6.9 mph W11.1 kmh W 11.5 mph18.5 kmh 29.41 in995.9 mb - 0.00 in0.0 mm 0.00 in0.0 mm
05:50 AM 47.3°F8.5°C 36.9°F2.7°C 67% 4.6 mph W7.4 kmh W 6.9 mph11.1 kmh 29.39 in995.3 mb - 0.00 in0.0 mm 0.00 in0.0 mm
05:45 AM 46.9°F8.3°C 36.5°F2.5°C 67% 4.6 mph W7.4 kmh W 8.1 mph13.0 kmh 29.39 in995.3 mb - 0.00 in0.0 mm 0.00 in0.0 mm
05:40 AM 46.5°F8.1°C 36.1°F2.3°C 67% 5.8 mph WSW9.3 kmh WSW 8.1 mph13.0 kmh 29.39 in995.3 mb - 0.00 in0.0 mm 0.00 in0.0 mm
05:30 AM 46.4°F8.0°C 35.3°F1.8°C 65% 1.2 mph W1.9 kmh W 4.6 mph7.4 kmh 29.39 in995.3 mb - 0.00 in0.0 mm 0.00 in0.0 mm
05:20 AM 46.3°F7.9°C 35.1°F1.7°C 65% 1.2 mph W1.9 kmh W 3.5 mph5.6 kmh 29.38 in994.9 mb - 0.00 in0.0 mm 0.00 in0.0 mm
05:15 AM 46.1°F7.8°C 35.0°F1.7°C 65% 1.2 mph W1.9 kmh W 3.5 mph5.6 kmh 29.38 in994.9 mb - 0.00 in0.0 mm 0.00 in0.0 mm
05:10 AM 45.9°F7.7°C 34.4°F1.3°C 64% 1.2 mph W1.9 kmh W 1.2 mph1.9 kmh 29.38 in994.9 mb - 0.00 in0.0 mm 0.00 in0.0 mm
05:00 AM 46.7°F8.2°C 34.7°F1.5°C 63% 1.2 mph WSW1.9 kmh WSW 2.3 mph3.7 kmh 29.37 in994.6 mb - 0.00 in0.0 mm 0.00 in0.0 mm
04:50 AM 47.6°F8.7°C 34.8°F1.6°C 61% 1.2 mph WSW1.9 kmh WSW 2.3 mph3.7 kmh 29.37 in994.6 mb - 0.00 in0.0 mm 0.00 in0.0 mm
04:45 AM 47.9°F8.8°C 35.1°F1.7°C 61% 1.2 mph WSW1.9 kmh WSW 2.3 mph3.7 kmh 29.37 in994.6 mb - 0.00 in0.0 mm 0.00 in0.0 mm
04:40 AM 48.2°F9.0°C 34.9°F1.6°C 60% Calm Calm -- 29.37 in994.6 mb - 0.00 in0.0 mm 0.00 in0.0 mm
04:30 AM 48.7°F9.3°C 35.0°F1.7°C 59% Calm Calm -- 29.36 in994.2 mb - 0.00 in0.0 mm 0.00 in0.0 mm
04:20 AM 49.4°F9.7°C 35.7°F2.1°C 59% 2.3 mph WSW3.7 kmh WSW 3.5 mph5.6 kmh 29.35 in993.9 mb - 0.00 in0.0 mm 0.00 in0.0 mm
04:15 AM 49.6°F9.8°C 35.4°F1.9°C 58% 3.5 mph WSW5.6 kmh WSW 5.8 mph9.3 kmh 29.35 in993.9 mb - 0.00 in0.0 mm 0.00 in0.0 mm
04:10 AM 49.7°F9.8°C 35.6°F2.0°C 58% 3.5 mph WSW5.6 kmh WSW 5.8 mph9.3 kmh 29.35 in993.9 mb - 0.00 in0.0 mm 0.00 in0.0 mm
04:00 AM 49.9°F9.9°C 35.7°F2.1°C 58% 5.8 mph WSW9.3 kmh WSW 8.1 mph13.0 kmh 29.35 in993.9 mb - 0.00 in0.0 mm 0.00 in0.0 mm
03:50 AM 50.0°F10.0°C 35.8°F2.1°C 58% 4.6 mph WSW7.4 kmh WSW 8.1 mph13.0 kmh 29.35 in993.9 mb - 0.00 in0.0 mm 0.00 in0.0 mm
03:45 AM 50.2°F10.1°C 35.9°F2.2°C 58% 5.8 mph WSW9.3 kmh WSW 11.5 mph18.5 kmh 29.35 in993.9 mb - 0.00 in0.0 mm 0.00 in0.0 mm
03:40 AM 50.4°F10.2°C 36.2°F2.3°C 58% 8.1 mph SW13.0 kmh SW 11.5 mph18.5 kmh 29.35 in993.9 mb - 0.00 in0.0 mm 0.00 in0.0 mm
03:30 AM 50.5°F10.3°C 36.3°F2.4°C 58% 4.6 mph WSW7.4 kmh WSW 8.1 mph13.0 kmh 29.35 in993.9 mb - 0.00 in0.0 mm 0.00 in0.0 mm
03:20 AM 50.9°F10.5°C 36.2°F2.3°C 57% 5.8 mph WSW9.3 kmh WSW 9.2 mph14.8 kmh 29.35 in993.9 mb - 0.00 in0.0 mm 0.00 in0.0 mm
03:15 AM 50.9°F10.5°C 36.6°F2.6°C 58% 6.9 mph SW11.1 kmh SW 10.4 mph16.7 kmh 29.35 in993.9 mb - 0.00 in0.0 mm 0.00 in0.0 mm
03:10 AM 51.0°F10.6°C 36.7°F2.6°C 58% 5.8 mph WSW9.3 kmh WSW 8.1 mph13.0 kmh 29.35 in993.9 mb - 0.00 in0.0 mm 0.00 in0.0 mm
03:00 AM 51.0°F10.6°C 36.7°F2.6°C 58% 8.1 mph WSW13.0 kmh WSW 11.5 mph18.5 kmh 29.35 in993.9 mb - 0.00 in0.0 mm 0.00 in0.0 mm
02:50 AM 51.2°F10.7°C 36.9°F2.7°C 58% 5.8 mph WSW9.3 kmh WSW 10.4 mph16.7 kmh 29.35 in993.9 mb - 0.00 in0.0 mm 0.00 in0.0 mm
02:45 AM 51.1°F10.6°C 36.8°F2.7°C 58% 8.1 mph WSW13.0 kmh WSW 10.4 mph16.7 kmh 29.35 in993.9 mb - 0.00 in0.0 mm 0.00 in0.0 mm
02:40 AM 51.1°F10.6°C 37.2°F2.9°C 59% 5.8 mph SW9.3 kmh SW 8.1 mph13.0 kmh 29.34 in993.6 mb - 0.00 in0.0 mm 0.00 in0.0 mm
02:30 AM 51.5°F10.8°C 37.2°F2.9°C 58% 6.9 mph SW11.1 kmh SW 8.1 mph13.0 kmh 29.35 in993.9 mb - 0.00 in0.0 mm 0.00 in0.0 mm
02:20 AM 52.4°F11.3°C 37.1°F2.8°C 56% 4.6 mph WSW7.4 kmh WSW 8.1 mph13.0 kmh 29.35 in993.9 mb - 0.00 in0.0 mm 0.00 in0.0 mm
02:15 AM 52.7°F11.5°C 37.4°F3.0°C 56% 5.8 mph WSW9.3 kmh WSW 8.1 mph13.0 kmh 29.35 in993.9 mb - 0.00 in0.0 mm 0.00 in0.0 mm
02:10 AM 53.0°F11.7°C 37.7°F3.2°C 56% 6.9 mph WSW11.1 kmh WSW 8.1 mph13.0 kmh 29.36 in994.2 mb - 0.00 in0.0 mm 0.00 in0.0 mm
02:00 AM 53.4°F11.9°C 37.7°F3.2°C 55% 6.9 mph WSW11.1 kmh WSW 9.2 mph14.8 kmh 29.36 in994.2 mb - 0.00 in0.0 mm 0.00 in0.0 mm
01:50 AM 53.5°F11.9°C 37.7°F3.2°C 55% 9.2 mph WSW14.8 kmh WSW 10.4 mph16.7 kmh 29.36 in994.2 mb - 0.00 in0.0 mm 0.00 in0.0 mm
01:45 AM 53.5°F11.9°C 38.2°F3.4°C 56% 6.9 mph WSW11.1 kmh WSW 9.2 mph14.8 kmh 29.36 in994.2 mb - 0.00 in0.0 mm 0.00 in0.0 mm
01:40 AM 53.3°F11.8°C 38.0°F3.3°C 56% 10.4 mph SW16.7 kmh SW 12.7 mph20.4 kmh 29.36 in994.2 mb - 0.00 in0.0 mm 0.00 in0.0 mm
01:30 AM 53.5°F11.9°C 38.2°F3.4°C 56% 5.8 mph WSW9.3 kmh WSW 8.1 mph13.0 kmh 29.35 in993.9 mb - 0.00 in0.0 mm 0.00 in0.0 mm
01:20 AM 53.8°F12.1°C 38.5°F3.6°C 56% 8.1 mph SW13.0 kmh SW 11.5 mph18.5 kmh 29.35 in993.9 mb - 0.00 in0.0 mm 0.00 in0.0 mm
01:15 AM 54.2°F12.3°C 38.9°F3.8°C 56% 5.8 mph SW9.3 kmh SW 8.1 mph13.0 kmh 29.35 in993.9 mb - 0.00 in0.0 mm 0.00 in0.0 mm
01:10 AM 54.6°F12.6°C 38.8°F3.8°C 55% 3.5 mph WSW5.6 kmh WSW 4.6 mph7.4 kmh 29.35 in993.9 mb - 0.00 in0.0 mm 0.00 in0.0 mm
01:00 AM 55.4°F13.0°C 39.0°F3.9°C 54% 5.8 mph WSW9.3 kmh WSW 8.1 mph13.0 kmh 29.36 in994.2 mb - 0.00 in0.0 mm 0.00 in0.0 mm
12:50 AM 56.1°F13.4°C 39.2°F4.0°C 53% 6.9 mph WSW11.1 kmh WSW 8.1 mph13.0 kmh 29.36 in994.2 mb - 0.00 in0.0 mm 0.00 in0.0 mm
12:45 AM 56.3°F13.5°C 39.4°F4.1°C 53% 9.2 mph WSW14.8 kmh WSW 16.1 mph25.9 kmh 29.36 in994.2 mb - 0.00 in0.0 mm 0.00 in0.0 mm
12:40 AM 56.6°F13.7°C 39.6°F4.2°C 53% 9.2 mph SW14.8 kmh SW 10.4 mph16.7 kmh 29.36 in994.2 mb - 0.00 in0.0 mm 0.00 in0.0 mm
12:30 AM 57.0°F13.9°C 39.5°F4.2°C 52% 12.7 mph WSW20.4 kmh WSW 16.1 mph25.9 kmh 29.36 in994.2 mb - 0.00 in0.0 mm 0.00 in0.0 mm
12:20 AM 57.5°F14.2°C 40.0°F4.4°C 52% 11.5 mph WSW18.5 kmh WSW 16.1 mph25.9 kmh 29.36 in994.2 mb - 0.00 in0.0 mm 0.00 in0.0 mm
12:15 AM 57.3°F14.1°C 39.8°F4.3°C 52% 12.7 mph WSW20.4 kmh WSW 15.0 mph24.1 kmh 29.36 in994.2 mb - 0.00 in0.0 mm 0.00 in0.0 mm
12:10 AM 57.1°F13.9°C 40.2°F4.6°C 53% 10.4 mph WSW16.7 kmh WSW 12.7 mph20.4 kmh 29.36 in994.2 mb - 0.00 in0.0 mm 0.00 in0.0 mm
12:00 AM 57.2°F14.0°C 40.7°F4.8°C 54% 9.2 mph WSW14.8 kmh WSW 11.5 mph18.5 kmh 29.36 in994.2 mb - 0.00 in0.0 mm 0.00 in0.0 mm